sensor_id;sensor_type;location;lat;lon;timestamp;P1;durP1;ratioP1;P2;durP2;ratioP2
12869;SDS011;6503;48.572;13.460;2023-11-19T00:01:49;18.80;;;13.10;;
12869;SDS011;6503;48.572;13.460;2023-11-19T00:04:18;15.60;;;12.13;;
12869;SDS011;6503;48.572;13.460;2023-11-19T00:06:56;16.63;;;11.82;;
12869;SDS011;6503;48.572;13.460;2023-11-19T00:09:28;14.90;;;11.18;;
12869;SDS011;6503;48.572;13.460;2023-11-19T00:11:56;17.67;;;12.57;;
12869;SDS011;6503;48.572;13.460;2023-11-19T00:14:25;16.73;;;11.98;;
12869;SDS011;6503;48.572;13.460;2023-11-19T00:16:54;16.20;;;11.48;;
12869;SDS011;6503;48.572;13.460;2023-11-19T00:19:22;17.10;;;12.38;;
12869;SDS011;6503;48.572;13.460;2023-11-19T00:21:51;15.32;;;11.95;;
12869;SDS011;6503;48.572;13.460;2023-11-19T00:24:18;15.48;;;12.02;;
12869;SDS011;6503;48.572;13.460;2023-11-19T00:26:46;15.80;;;11.70;;
12869;SDS011;6503;48.572;13.460;2023-11-19T00:29:15;16.15;;;11.63;;
12869;SDS011;6503;48.572;13.460;2023-11-19T00:31:43;14.90;;;10.75;;
12869;SDS011;6503;48.572;13.460;2023-11-19T00:34:11;15.27;;;11.55;;
12869;SDS011;6503;48.572;13.460;2023-11-19T00:36:38;17.88;;;11.95;;
12869;SDS011;6503;48.572;13.460;2023-11-19T00:39:14;14.55;;;10.10;;
12869;SDS011;6503;48.572;13.460;2023-11-19T00:41:43;13.48;;;10.00;;
12869;SDS011;6503;48.572;13.460;2023-11-19T00:44:11;12.45;;;10.05;;
12869;SDS011;6503;48.572;13.460;2023-11-19T00:46:38;14.50;;;10.15;;
12869;SDS011;6503;48.572;13.460;2023-11-19T00:49:06;13.25;;;9.88;;
12869;SDS011;6503;48.572;13.460;2023-11-19T00:51:33;12.35;;;8.82;;
12869;SDS011;6503;48.572;13.460;2023-11-19T00:54:00;12.57;;;9.48;;
12869;SDS011;6503;48.572;13.460;2023-11-19T00:56:29;11.45;;;9.57;;
12869;SDS011;6503;48.572;13.460;2023-11-19T00:58:56;13.93;;;9.23;;
12869;SDS011;6503;48.572;13.460;2023-11-19T01:01:25;14.15;;;10.40;;
12869;SDS011;6503;48.572;13.460;2023-11-19T01:03:52;13.35;;;11.38;;
12869;SDS011;6503;48.572;13.460;2023-11-19T01:06:26;16.05;;;12.48;;
12869;SDS011;6503;48.572;13.460;2023-11-19T01:08:53;14.23;;;11.15;;
12869;SDS011;6503;48.572;13.460;2023-11-19T01:11:23;16.98;;;12.77;;
12869;SDS011;6503;48.572;13.460;2023-11-19T01:13:53;17.65;;;13.02;;
12869;SDS011;6503;48.572;13.460;2023-11-19T01:16:20;16.33;;;12.60;;
12869;SDS011;6503;48.572;13.460;2023-11-19T01:18:48;16.42;;;12.98;;
12869;SDS011;6503;48.572;13.460;2023-11-19T01:21:15;15.95;;;12.55;;
12869;SDS011;6503;48.572;13.460;2023-11-19T01:23:43;16.52;;;13.10;;
12869;SDS011;6503;48.572;13.460;2023-11-19T01:26:13;18.25;;;13.55;;
12869;SDS011;6503;48.572;13.460;2023-11-19T01:28:59;17.95;;;13.98;;
12869;SDS011;6503;48.572;13.460;2023-11-19T01:31:32;16.83;;;12.90;;
12869;SDS011;6503;48.572;13.460;2023-11-19T01:37:44;17.65;;;13.55;;
12869;SDS011;6503;48.572;13.460;2023-11-19T01:43:11;17.55;;;13.00;;
12869;SDS011;6503;48.572;13.460;2023-11-19T01:46:04;18.25;;;14.10;;
12869;SDS011;6503;48.572;13.460;2023-11-19T01:48:36;15.98;;;12.70;;
12869;SDS011;6503;48.572;13.460;2023-11-19T01:51:19;18.00;;;12.82;;
12869;SDS011;6503;48.572;13.460;2023-11-19T01:54:03;18.20;;;13.88;;
12869;SDS011;6503;48.572;13.460;2023-11-19T01:56:36;16.60;;;13.23;;
12869;SDS011;6503;48.572;13.460;2023-11-19T01:59:26;20.52;;;15.45;;
12869;SDS011;6503;48.572;13.460;2023-11-19T02:02:19;17.58;;;13.60;;
12869;SDS011;6503;48.572;13.460;2023-11-19T02:05:02;17.25;;;13.85;;
12869;SDS011;6503;48.572;13.460;2023-11-19T02:07:58;18.40;;;13.60;;
12869;SDS011;6503;48.572;13.460;2023-11-19T02:10:51;18.77;;;14.25;;
12869;SDS011;6503;48.572;13.460;2023-11-19T02:13:33;21.33;;;14.15;;
12869;SDS011;6503;48.572;13.460;2023-11-19T02:16:07;21.02;;;14.38;;
12869;SDS011;6503;48.572;13.460;2023-11-19T02:18:43;18.80;;;13.57;;
12869;SDS011;6503;48.572;13.460;2023-11-19T02:21:16;19.63;;;13.55;;
12869;SDS011;6503;48.572;13.460;2023-11-19T02:23:43;18.02;;;14.13;;
12869;SDS011;6503;48.572;13.460;2023-11-19T02:26:12;20.27;;;14.00;;
12869;SDS011;6503;48.572;13.460;2023-11-19T02:34:59;19.90;;;14.00;;
12869;SDS011;6503;48.572;13.460;2023-11-19T02:37:43;19.00;;;13.45;;
12869;SDS011;6503;48.572;13.460;2023-11-19T02:46:12;18.70;;;13.50;;
12869;SDS011;6503;48.572;13.460;2023-11-19T02:48:49;18.75;;;12.30;;
12869;SDS011;6503;48.572;13.460;2023-11-19T02:51:29;20.63;;;13.85;;
12869;SDS011;6503;48.572;13.460;2023-11-19T02:57:06;16.65;;;12.13;;
12869;SDS011;6503;48.572;13.460;2023-11-19T02:59:44;16.73;;;12.18;;
12869;SDS011;6503;48.572;13.460;2023-11-19T03:02:13;17.42;;;12.30;;
12869;SDS011;6503;48.572;13.460;2023-11-19T03:05:04;16.92;;;12.57;;
12869;SDS011;6503;48.572;13.460;2023-11-19T03:10:25;18.05;;;13.23;;
12869;SDS011;6503;48.572;13.460;2023-11-19T03:13:05;16.38;;;12.05;;
12869;SDS011;6503;48.572;13.460;2023-11-19T03:15:54;18.40;;;13.60;;
12869;SDS011;6503;48.572;13.460;2023-11-19T03:18:30;18.67;;;13.18;;
12869;SDS011;6503;48.572;13.460;2023-11-19T03:21:29;17.10;;;12.63;;
12869;SDS011;6503;48.572;13.460;2023-11-19T03:24:18;17.85;;;12.18;;
12869;SDS011;6503;48.572;13.460;2023-11-19T03:26:54;18.02;;;13.20;;
12869;SDS011;6503;48.572;13.460;2023-11-19T03:29:38;15.52;;;12.52;;
12869;SDS011;6503;48.572;13.460;2023-11-19T03:32:19;17.67;;;11.70;;
12869;SDS011;6503;48.572;13.460;2023-11-19T03:34:52;15.80;;;12.10;;
12869;SDS011;6503;48.572;13.460;2023-11-19T03:37:20;15.65;;;11.95;;
12869;SDS011;6503;48.572;13.460;2023-11-19T03:39:48;14.68;;;10.80;;
12869;SDS011;6503;48.572;13.460;2023-11-19T03:42:18;16.85;;;12.73;;
12869;SDS011;6503;48.572;13.460;2023-11-19T03:44:49;14.48;;;11.30;;
12869;SDS011;6503;48.572;13.460;2023-11-19T03:47:16;15.30;;;11.27;;
12869;SDS011;6503;48.572;13.460;2023-11-19T03:49:46;17.40;;;12.57;;
12869;SDS011;6503;48.572;13.460;2023-11-19T03:52:15;15.35;;;11.30;;
12869;SDS011;6503;48.572;13.460;2023-11-19T03:54:45;15.98;;;11.77;;
12869;SDS011;6503;48.572;13.460;2023-11-19T03:57:15;18.52;;;12.23;;
12869;SDS011;6503;48.572;13.460;2023-11-19T03:59:45;14.95;;;11.48;;
12869;SDS011;6503;48.572;13.460;2023-11-19T04:02:13;15.27;;;11.90;;
12869;SDS011;6503;48.572;13.460;2023-11-19T04:04:40;14.90;;;11.70;;
12869;SDS011;6503;48.572;13.460;2023-11-19T04:07:07;14.90;;;10.77;;
12869;SDS011;6503;48.572;13.460;2023-11-19T04:09:35;12.80;;;10.40;;
12869;SDS011;6503;48.572;13.460;2023-11-19T04:12:02;13.45;;;10.50;;
12869;SDS011;6503;48.572;13.460;2023-11-19T04:14:30;13.27;;;10.43;;
12869;SDS011;6503;48.572;13.460;2023-11-19T04:16:59;14.63;;;10.27;;
12869;SDS011;6503;48.572;13.460;2023-11-19T04:19:27;13.35;;;10.15;;
12869;SDS011;6503;48.572;13.460;2023-11-19T04:21:55;16.40;;;11.35;;
12869;SDS011;6503;48.572;13.460;2023-11-19T04:24:22;13.77;;;9.63;;
12869;SDS011;6503;48.572;13.460;2023-11-19T04:26:49;13.45;;;9.88;;
12869;SDS011;6503;48.572;13.460;2023-11-19T04:29:17;12.88;;;10.18;;
12869;SDS011;6503;48.572;13.460;2023-11-19T04:31:44;15.35;;;10.80;;
12869;SDS011;6503;48.572;13.460;2023-11-19T04:34:13;14.00;;;10.57;;
12869;SDS011;6503;48.572;13.460;2023-11-19T04:36:41;13.88;;;9.95;;
12869;SDS011;6503;48.572;13.460;2023-11-19T04:39:09;13.85;;;10.35;;
12869;SDS011;6503;48.572;13.460;2023-11-19T04:41:44;14.27;;;10.45;;
12869;SDS011;6503;48.572;13.460;2023-11-19T04:44:12;13.85;;;10.40;;
12869;SDS011;6503;48.572;13.460;2023-11-19T04:46:40;15.07;;;10.60;;
12869;SDS011;6503;48.572;13.460;2023-11-19T04:49:09;14.10;;;10.50;;
12869;SDS011;6503;48.572;13.460;2023-11-19T04:51:41;11.73;;;9.20;;
12869;SDS011;6503;48.572;13.460;2023-11-19T04:54:08;11.45;;;8.95;;
12869;SDS011;6503;48.572;13.460;2023-11-19T04:56:36;11.13;;;8.68;;
12869;SDS011;6503;48.572;13.460;2023-11-19T04:59:04;10.77;;;8.40;;
12869;SDS011;6503;48.572;13.460;2023-11-19T05:01:31;11.65;;;8.77;;
12869;SDS011;6503;48.572;13.460;2023-11-19T05:04:07;13.48;;;8.80;;
12869;SDS011;6503;48.572;13.460;2023-11-19T05:06:47;11.68;;;8.30;;
12869;SDS011;6503;48.572;13.460;2023-11-19T05:09:31;10.52;;;7.80;;
12869;SDS011;6503;48.572;13.460;2023-11-19T05:12:15;9.88;;;7.68;;
12869;SDS011;6503;48.572;13.460;2023-11-19T05:14:58;12.40;;;9.38;;
12869;SDS011;6503;48.572;13.460;2023-11-19T05:17:31;11.02;;;8.57;;
12869;SDS011;6503;48.572;13.460;2023-11-19T05:20:18;11.55;;;8.65;;
12869;SDS011;6503;48.572;13.460;2023-11-19T05:22:57;9.88;;;8.35;;
12869;SDS011;6503;48.572;13.460;2023-11-19T05:25:30;10.48;;;8.20;;
12869;SDS011;6503;48.572;13.460;2023-11-19T05:30:59;13.32;;;9.07;;
12869;SDS011;6503;48.572;13.460;2023-11-19T05:33:40;10.98;;;8.50;;
12869;SDS011;6503;48.572;13.460;2023-11-19T05:36:16;11.35;;;7.85;;
12869;SDS011;6503;48.572;13.460;2023-11-19T05:42:12;10.80;;;7.90;;
12869;SDS011;6503;48.572;13.460;2023-11-19T05:44:53;12.02;;;8.32;;
12869;SDS011;6503;48.572;13.460;2023-11-19T05:47:38;9.63;;;7.28;;
12869;SDS011;6503;48.572;13.460;2023-11-19T05:50:05;9.63;;;7.43;;
12869;SDS011;6503;48.572;13.460;2023-11-19T05:55:38;10.55;;;7.78;;
12869;SDS011;6503;48.572;13.460;2023-11-19T05:58:14;10.05;;;8.25;;
12869;SDS011;6503;48.572;13.460;2023-11-19T06:00:48;10.20;;;7.53;;
12869;SDS011;6503;48.572;13.460;2023-11-19T06:03:38;9.90;;;7.68;;
12869;SDS011;6503;48.572;13.460;2023-11-19T06:06:27;8.48;;;7.22;;
12869;SDS011;6503;48.572;13.460;2023-11-19T06:09:11;8.90;;;7.10;;
12869;SDS011;6503;48.572;13.460;2023-11-19T06:12:01;10.75;;;7.35;;
12869;SDS011;6503;48.572;13.460;2023-11-19T06:17:35;9.05;;;7.13;;
12869;SDS011;6503;48.572;13.460;2023-11-19T06:20:20;9.73;;;7.03;;
12869;SDS011;6503;48.572;13.460;2023-11-19T06:23:09;10.63;;;7.78;;
12869;SDS011;6503;48.572;13.460;2023-11-19T06:25:53;11.40;;;8.43;;
12869;SDS011;6503;48.572;13.460;2023-11-19T06:28:34;10.32;;;7.55;;
12869;SDS011;6503;48.572;13.460;2023-11-19T06:31:16;8.85;;;7.13;;
12869;SDS011;6503;48.572;13.460;2023-11-19T06:34:10;10.65;;;7.65;;
12869;SDS011;6503;48.572;13.460;2023-11-19T06:36:57;12.25;;;9.23;;
12869;SDS011;6503;48.572;13.460;2023-11-19T06:39:41;10.57;;;7.95;;
12869;SDS011;6503;48.572;13.460;2023-11-19T06:42:32;9.70;;;7.75;;
12869;SDS011;6503;48.572;13.460;2023-11-19T06:45:12;9.43;;;7.38;;
12869;SDS011;6503;48.572;13.460;2023-11-19T06:56:27;11.63;;;8.55;;
12869;SDS011;6503;48.572;13.460;2023-11-19T06:59:20;11.93;;;8.52;;
12869;SDS011;6503;48.572;13.460;2023-11-19T07:02:10;12.43;;;8.57;;
12869;SDS011;6503;48.572;13.460;2023-11-19T07:07:54;11.68;;;7.72;;
12869;SDS011;6503;48.572;13.460;2023-11-19T07:10:35;10.20;;;7.80;;
12869;SDS011;6503;48.572;13.460;2023-11-19T07:19:02;12.00;;;8.77;;
12869;SDS011;6503;48.572;13.460;2023-11-19T07:21:39;11.63;;;8.38;;
12869;SDS011;6503;48.572;13.460;2023-11-19T07:24:19;10.25;;;7.55;;
12869;SDS011;6503;48.572;13.460;2023-11-19T07:27:00;9.25;;;7.20;;
12869;SDS011;6503;48.572;13.460;2023-11-19T07:29:50;9.48;;;6.95;;
12869;SDS011;6503;48.572;13.460;2023-11-19T07:32:35;9.93;;;7.25;;
12869;SDS011;6503;48.572;13.460;2023-11-19T07:35:19;9.00;;;6.85;;
12869;SDS011;6503;48.572;13.460;2023-11-19T07:38:00;8.98;;;7.13;;
12869;SDS011;6503;48.572;13.460;2023-11-19T07:40:34;8.93;;;7.28;;
12869;SDS011;6503;48.572;13.460;2023-11-19T07:43:17;8.20;;;6.22;;
12869;SDS011;6503;48.572;13.460;2023-11-19T07:46:01;8.25;;;6.53;;
12869;SDS011;6503;48.572;13.460;2023-11-19T07:48:41;6.72;;;5.65;;
12869;SDS011;6503;48.572;13.460;2023-11-19T07:51:10;7.43;;;5.75;;
12869;SDS011;6503;48.572;13.460;2023-11-19T07:53:43;7.05;;;5.43;;
12869;SDS011;6503;48.572;13.460;2023-11-19T07:59:10;9.55;;;7.07;;
12869;SDS011;6503;48.572;13.460;2023-11-19T08:02:09;9.85;;;6.40;;
12869;SDS011;6503;48.572;13.460;2023-11-19T08:05:00;8.57;;;6.13;;
12869;SDS011;6503;48.572;13.460;2023-11-19T08:10:32;7.72;;;5.80;;
12869;SDS011;6503;48.572;13.460;2023-11-19T08:16:13;8.77;;;5.60;;
12869;SDS011;6503;48.572;13.460;2023-11-19T08:21:38;7.82;;;5.97;;
12869;SDS011;6503;48.572;13.460;2023-11-19T08:24:12;8.07;;;5.22;;
12869;SDS011;6503;48.572;13.460;2023-11-19T08:32:47;6.97;;;5.15;;
12869;SDS011;6503;48.572;13.460;2023-11-19T08:35:15;6.03;;;5.05;;
12869;SDS011;6503;48.572;13.460;2023-11-19T08:37:42;5.82;;;4.07;;
12869;SDS011;6503;48.572;13.460;2023-11-19T08:40:11;4.22;;;3.63;;
12869;SDS011;6503;48.572;13.460;2023-11-19T08:42:40;2.60;;;2.40;;
12869;SDS011;6503;48.572;13.460;2023-11-19T08:45:08;3.55;;;1.83;;
12869;SDS011;6503;48.572;13.460;2023-11-19T08:47:36;2.35;;;1.70;;
12869;SDS011;6503;48.572;13.460;2023-11-19T08:50:07;3.10;;;1.80;;
12869;SDS011;6503;48.572;13.460;2023-11-19T08:52:35;2.40;;;1.95;;
12869;SDS011;6503;48.572;13.460;2023-11-19T08:55:06;4.22;;;1.80;;
12869;SDS011;6503;48.572;13.460;2023-11-19T08:57:35;1.83;;;1.45;;
12869;SDS011;6503;48.572;13.460;2023-11-19T09:00:02;2.22;;;1.85;;
12869;SDS011;6503;48.572;13.460;2023-11-19T09:02:33;2.90;;;1.88;;
12869;SDS011;6503;48.572;13.460;2023-11-19T09:05:02;2.10;;;1.70;;
12869;SDS011;6503;48.572;13.460;2023-11-19T09:07:30;2.85;;;1.83;;
12869;SDS011;6503;48.572;13.460;2023-11-19T09:09:58;3.13;;;2.20;;
12869;SDS011;6503;48.572;13.460;2023-11-19T09:12:25;2.17;;;1.42;;
12869;SDS011;6503;48.572;13.460;2023-11-19T09:14:53;2.28;;;1.30;;
12869;SDS011;6503;48.572;13.460;2023-11-19T09:17:20;1.75;;;1.25;;
12869;SDS011;6503;48.572;13.460;2023-11-19T09:19:50;2.90;;;1.40;;
12869;SDS011;6503;48.572;13.460;2023-11-19T09:25:22;3.60;;;1.00;;
12869;SDS011;6503;48.572;13.460;2023-11-19T09:28:09;1.70;;;1.35;;
12869;SDS011;6503;48.572;13.460;2023-11-19T09:30:56;2.08;;;1.17;;
12869;SDS011;6503;48.572;13.460;2023-11-19T09:33:37;1.33;;;1.23;;
12869;SDS011;6503;48.572;13.460;2023-11-19T09:36:30;2.38;;;1.35;;
12869;SDS011;6503;48.572;13.460;2023-11-19T09:39:26;4.53;;;1.90;;
12869;SDS011;6503;48.572;13.460;2023-11-19T09:42:10;2.23;;;1.50;;
12869;SDS011;6503;48.572;13.460;2023-11-19T09:47:37;2.53;;;1.65;;
12869;SDS011;6503;48.572;13.460;2023-11-19T09:50:10;3.00;;;1.40;;
12869;SDS011;6503;48.572;13.460;2023-11-19T09:52:53;1.20;;;1.08;;
12869;SDS011;6503;48.572;13.460;2023-11-19T09:55:43;2.75;;;1.65;;
12869;SDS011;6503;48.572;13.460;2023-11-19T09:58:34;2.35;;;1.73;;
12869;SDS011;6503;48.572;13.460;2023-11-19T10:04:00;1.83;;;1.63;;
12869;SDS011;6503;48.572;13.460;2023-11-19T10:06:49;1.88;;;1.40;;
12869;SDS011;6503;48.572;13.460;2023-11-19T10:09:34;2.70;;;2.08;;
12869;SDS011;6503;48.572;13.460;2023-11-19T10:12:18;2.97;;;1.60;;
12869;SDS011;6503;48.572;13.460;2023-11-19T10:29:37;1.50;;;1.40;;
12869;SDS011;6503;48.572;13.460;2023-11-19T10:32:19;3.97;;;2.65;;
12869;SDS011;6503;48.572;13.460;2023-11-19T10:34:49;1.60;;;1.50;;
12869;SDS011;6503;48.572;13.460;2023-11-19T10:37:46;1.88;;;1.77;;
12869;SDS011;6503;48.572;13.460;2023-11-19T10:40:53;2.10;;;1.88;;
12869;SDS011;6503;48.572;13.460;2023-11-19T10:43:52;2.63;;;1.52;;
12869;SDS011;6503;48.572;13.460;2023-11-19T10:49:33;1.98;;;1.42;;
12869;SDS011;6503;48.572;13.460;2023-11-19T10:52:07;1.55;;;1.15;;
12869;SDS011;6503;48.572;13.460;2023-11-19T10:54:44;1.67;;;1.52;;
12869;SDS011;6503;48.572;13.460;2023-11-19T10:57:30;2.33;;;1.60;;
12869;SDS011;6503;48.572;13.460;2023-11-19T11:00:22;2.38;;;1.52;;
12869;SDS011;6503;48.572;13.460;2023-11-19T11:04:11;3.28;;;2.17;;
12869;SDS011;6503;48.572;13.460;2023-11-19T11:06:07;5.15;;;3.38;;
12869;SDS011;6503;48.572;13.460;2023-11-19T11:11:47;2.50;;;1.90;;
12869;SDS011;6503;48.572;13.460;2023-11-19T11:14:29;1.70;;;1.60;;
12869;SDS011;6503;48.572;13.460;2023-11-19T11:20:13;2.42;;;1.55;;
12869;SDS011;6503;48.572;13.460;2023-11-19T11:52:03;0.50;;;0.50;;
12869;SDS011;6503;48.572;13.460;2023-11-19T11:57:36;0.30;;;0.30;;
12869;SDS011;6503;48.572;13.460;2023-11-19T12:00:36;0.52;;;0.52;;
12869;SDS011;6503;48.572;13.460;2023-11-19T12:03:11;0.68;;;0.68;;
12869;SDS011;6503;48.572;13.460;2023-11-19T12:05:39;1.27;;;1.17;;
12869;SDS011;6503;48.572;13.460;2023-11-19T12:08:18;0.30;;;0.30;;
12869;SDS011;6503;48.572;13.460;2023-11-19T12:11:07;0.73;;;0.73;;
12869;SDS011;6503;48.572;13.460;2023-11-19T12:14:03;0.55;;;0.55;;
12869;SDS011;6503;48.572;13.460;2023-11-19T12:19:41;0.40;;;0.40;;
12869;SDS011;6503;48.572;13.460;2023-11-19T12:22:15;0.57;;;0.57;;
12869;SDS011;6503;48.572;13.460;2023-11-19T12:24:44;0.75;;;0.73;;
12869;SDS011;6503;48.572;13.460;2023-11-19T12:27:26;0.30;;;0.30;;
12869;SDS011;6503;48.572;13.460;2023-11-19T12:30:08;0.65;;;0.65;;
12869;SDS011;6503;48.572;13.460;2023-11-19T12:32:45;2.15;;;1.33;;
12869;SDS011;6503;48.572;13.460;2023-11-19T12:35:31;0.30;;;0.30;;
12869;SDS011;6503;48.572;13.460;2023-11-19T12:38:25;0.75;;;0.75;;
12869;SDS011;6503;48.572;13.460;2023-11-19T12:41:13;2.83;;;0.30;;
12869;SDS011;6503;48.572;13.460;2023-11-19T12:43:50;0.95;;;0.95;;
12869;SDS011;6503;48.572;13.460;2023-11-19T12:46:18;0.57;;;0.57;;
12869;SDS011;6503;48.572;13.460;2023-11-19T12:48:52;0.70;;;0.70;;
12869;SDS011;6503;48.572;13.460;2023-11-19T12:51:33;1.35;;;0.82;;
12869;SDS011;6503;48.572;13.460;2023-11-19T12:54:08;0.75;;;0.50;;
12869;SDS011;6503;48.572;13.460;2023-11-19T12:57:00;0.95;;;0.40;;
12869;SDS011;6503;48.572;13.460;2023-11-19T12:59:41;1.00;;;0.90;;
12869;SDS011;6503;48.572;13.460;2023-11-19T13:02:16;0.88;;;0.88;;
12869;SDS011;6503;48.572;13.460;2023-11-19T13:05:28;0.95;;;0.88;;
12869;SDS011;6503;48.572;13.460;2023-11-19T13:08:15;1.20;;;1.20;;
12869;SDS011;6503;48.572;13.460;2023-11-19T13:10:56;1.35;;;1.25;;
12869;SDS011;6503;48.572;13.460;2023-11-19T13:13:57;0.30;;;0.30;;
12869;SDS011;6503;48.572;13.460;2023-11-19T13:16:51;0.60;;;0.60;;
12869;SDS011;6503;48.572;13.460;2023-11-19T13:19:19;0.60;;;0.60;;
12869;SDS011;6503;48.572;13.460;2023-11-19T13:21:59;3.58;;;2.72;;
12869;SDS011;6503;48.572;13.460;2023-11-19T13:24:54;0.20;;;0.20;;
12869;SDS011;6503;48.572;13.460;2023-11-19T13:27:21;0.10;;;0.10;;
12869;SDS011;6503;48.572;13.460;2023-11-19T13:30:20;1.65;;;1.55;;
12869;SDS011;6503;48.572;13.460;2023-11-19T13:32:57;1.08;;;0.95;;
12869;SDS011;6503;48.572;13.460;2023-11-19T13:35:54;0.40;;;0.40;;
12869;SDS011;6503;48.572;13.460;2023-11-19T13:38:50;0.10;;;0.10;;
12869;SDS011;6503;48.572;13.460;2023-11-19T13:42:55;0.82;;;0.82;;
12869;SDS011;6503;48.572;13.460;2023-11-19T13:44:26;0.10;;;0.10;;
12869;SDS011;6503;48.572;13.460;2023-11-19T13:53:13;2.08;;;1.15;;
12869;SDS011;6503;48.572;13.460;2023-11-19T13:55:53;0.40;;;0.40;;
12869;SDS011;6503;48.572;13.460;2023-11-19T14:00:47;2.92;;;0.47;;
12869;SDS011;6503;48.572;13.460;2023-11-19T14:03:15;0.30;;;0.30;;
12869;SDS011;6503;48.572;13.460;2023-11-19T14:05:43;1.30;;;1.27;;
12869;SDS011;6503;48.572;13.460;2023-11-19T14:08:12;1.15;;;0.77;;
12869;SDS011;6503;48.572;13.460;2023-11-19T14:11:28;0.28;;;0.28;;
12869;SDS011;6503;48.572;13.460;2023-11-19T14:13:52;0.50;;;0.50;;
12869;SDS011;6503;48.572;13.460;2023-11-19T14:16:19;0.85;;;0.85;;
12869;SDS011;6503;48.572;13.460;2023-11-19T14:18:54;0.20;;;0.20;;
12869;SDS011;6503;48.572;13.460;2023-11-19T14:21:35;0.47;;;0.47;;
12869;SDS011;6503;48.572;13.460;2023-11-19T14:24:19;0.50;;;0.50;;
12869;SDS011;6503;48.572;13.460;2023-11-19T14:27:09;0.20;;;0.20;;
12869;SDS011;6503;48.572;13.460;2023-11-19T14:29:48;0.57;;;0.57;;
12869;SDS011;6503;48.572;13.460;2023-11-19T14:32:27;0.30;;;0.30;;
12869;SDS011;6503;48.572;13.460;2023-11-19T14:34:54;0.38;;;0.38;;
12869;SDS011;6503;48.572;13.460;2023-11-19T14:37:22;0.30;;;0.30;;
12869;SDS011;6503;48.572;13.460;2023-11-19T14:39:50;1.20;;;1.20;;
12869;SDS011;6503;48.572;13.460;2023-11-19T14:42:18;0.43;;;0.43;;
12869;SDS011;6503;48.572;13.460;2023-11-19T14:44:45;0.25;;;0.25;;
12869;SDS011;6503;48.572;13.460;2023-11-19T14:47:35;0.40;;;0.40;;
12869;SDS011;6503;48.572;13.460;2023-11-19T14:50:19;0.85;;;0.85;;
12869;SDS011;6503;48.572;13.460;2023-11-19T14:53:00;0.20;;;0.20;;
12869;SDS011;6503;48.572;13.460;2023-11-19T14:55:44;1.02;;;1.02;;
12869;SDS011;6503;48.572;13.460;2023-11-19T15:01:35;3.67;;;2.78;;
12869;SDS011;6503;48.572;13.460;2023-11-19T15:06:59;0.82;;;0.82;;
12869;SDS011;6503;48.572;13.460;2023-11-19T15:09:53;0.23;;;0.23;;
12869;SDS011;6503;48.572;13.460;2023-11-19T15:15:33;0.90;;;0.90;;
12869;SDS011;6503;48.572;13.460;2023-11-19T15:18:32;1.02;;;1.02;;
12869;SDS011;6503;48.572;13.460;2023-11-19T15:21:31;0.20;;;0.20;;
12869;SDS011;6503;48.572;13.460;2023-11-19T15:27:13;1.33;;;1.27;;
12869;SDS011;6503;48.572;13.460;2023-11-19T15:29:54;0.43;;;0.43;;
12869;SDS011;6503;48.572;13.460;2023-11-19T15:35:46;0.50;;;0.50;;
12869;SDS011;6503;48.572;13.460;2023-11-19T15:41:29;1.60;;;1.50;;
12869;SDS011;6503;48.572;13.460;2023-11-19T15:46:54;1.63;;;1.52;;
12869;SDS011;6503;48.572;13.460;2023-11-19T15:49:51;2.47;;;1.90;;
12869;SDS011;6503;48.572;13.460;2023-11-19T15:52:29;2.17;;;1.30;;
12869;SDS011;6503;48.572;13.460;2023-11-19T15:55:10;0.68;;;0.68;;
12869;SDS011;6503;48.572;13.460;2023-11-19T15:57:44;3.83;;;1.55;;
12869;SDS011;6503;48.572;13.460;2023-11-19T16:00:17;1.85;;;1.75;;
12869;SDS011;6503;48.572;13.460;2023-11-19T16:03:09;1.55;;;1.45;;
12869;SDS011;6503;48.572;13.460;2023-11-19T16:05:42;0.82;;;0.82;;
12869;SDS011;6503;48.572;13.460;2023-11-19T16:08:25;3.28;;;1.10;;
12869;SDS011;6503;48.572;13.460;2023-11-19T16:10:52;1.63;;;1.10;;
12869;SDS011;6503;48.572;13.460;2023-11-19T16:13:46;3.70;;;3.35;;
12869;SDS011;6503;48.572;13.460;2023-11-19T16:16:28;1.15;;;1.15;;
12869;SDS011;6503;48.572;13.460;2023-11-19T16:19:18;1.75;;;1.65;;
12869;SDS011;6503;48.572;13.460;2023-11-19T16:21:52;2.17;;;1.60;;
12869;SDS011;6503;48.572;13.460;2023-11-19T16:27:49;0.55;;;0.55;;
12869;SDS011;6503;48.572;13.460;2023-11-19T16:30:39;0.32;;;0.32;;
12869;SDS011;6503;48.572;13.460;2023-11-19T16:33:23;1.77;;;1.67;;
12869;SDS011;6503;48.572;13.460;2023-11-19T16:36:05;1.15;;;1.05;;
12869;SDS011;6503;48.572;13.460;2023-11-19T16:38:51;0.85;;;0.85;;
12869;SDS011;6503;48.572;13.460;2023-11-19T16:41:39;2.33;;;2.15;;
12869;SDS011;6503;48.572;13.460;2023-11-19T16:44:33;0.60;;;0.60;;
12869;SDS011;6503;48.572;13.460;2023-11-19T16:47:23;3.20;;;3.00;;
12869;SDS011;6503;48.572;13.460;2023-11-19T16:50:04;0.75;;;0.75;;
12869;SDS011;6503;48.572;13.460;2023-11-19T16:52:41;1.40;;;1.30;;
12869;SDS011;6503;48.572;13.460;2023-11-19T16:55:20;1.45;;;1.35;;
12869;SDS011;6503;48.572;13.460;2023-11-19T16:58:16;1.73;;;1.63;;
12869;SDS011;6503;48.572;13.460;2023-11-19T17:01:00;1.05;;;1.05;;
12869;SDS011;6503;48.572;13.460;2023-11-19T17:03:36;0.77;;;0.77;;
12869;SDS011;6503;48.572;13.460;2023-11-19T17:06:06;1.42;;;1.33;;
12869;SDS011;6503;48.572;13.460;2023-11-19T17:08:44;2.80;;;1.63;;
12869;SDS011;6503;48.572;13.460;2023-11-19T17:11:21;0.95;;;0.95;;
12869;SDS011;6503;48.572;13.460;2023-11-19T17:14:09;1.02;;;1.02;;
12869;SDS011;6503;48.572;13.460;2023-11-19T17:16:40;3.13;;;2.15;;
12869;SDS011;6503;48.572;13.460;2023-11-19T17:19:21;2.42;;;2.22;;
12869;SDS011;6503;48.572;13.460;2023-11-19T17:22:04;1.38;;;1.27;;
12869;SDS011;6503;48.572;13.460;2023-11-19T17:24:38;1.77;;;1.67;;
12869;SDS011;6503;48.572;13.460;2023-11-19T17:27:08;0.95;;;0.95;;
12869;SDS011;6503;48.572;13.460;2023-11-19T17:29:39;1.13;;;1.13;;
12869;SDS011;6503;48.572;13.460;2023-11-19T17:32:09;1.08;;;1.08;;
12869;SDS011;6503;48.572;13.460;2023-11-19T17:34:37;1.45;;;1.38;;
12869;SDS011;6503;48.572;13.460;2023-11-19T17:37:14;1.83;;;1.73;;
12869;SDS011;6503;48.572;13.460;2023-11-19T17:39:45;0.70;;;0.70;;
12869;SDS011;6503;48.572;13.460;2023-11-19T17:42:22;1.00;;;0.82;;
12869;SDS011;6503;48.572;13.460;2023-11-19T17:44:56;1.52;;;1.42;;
12869;SDS011;6503;48.572;13.460;2023-11-19T17:47:27;1.08;;;1.02;;
12869;SDS011;6503;48.572;13.460;2023-11-19T17:49:54;0.55;;;0.55;;
12869;SDS011;6503;48.572;13.460;2023-11-19T17:52:21;0.57;;;0.57;;
12869;SDS011;6503;48.572;13.460;2023-11-19T17:54:49;1.45;;;1.35;;
12869;SDS011;6503;48.572;13.460;2023-11-19T17:57:17;0.93;;;0.90;;
12869;SDS011;6503;48.572;13.460;2023-11-19T17:59:44;1.02;;;1.02;;
12869;SDS011;6503;48.572;13.460;2023-11-19T18:04:46;0.22;;;0.22;;
12869;SDS011;6503;48.572;13.460;2023-11-19T18:07:13;1.27;;;1.27;;
12869;SDS011;6503;48.572;13.460;2023-11-19T18:09:42;2.55;;;2.35;;
12869;SDS011;6503;48.572;13.460;2023-11-19T18:12:10;0.80;;;0.80;;
12869;SDS011;6503;48.572;13.460;2023-11-19T18:14:37;2.65;;;1.70;;
12869;SDS011;6503;48.572;13.460;2023-11-19T18:17:05;1.77;;;1.75;;
12869;SDS011;6503;48.572;13.460;2023-11-19T18:19:32;1.55;;;1.45;;
12869;SDS011;6503;48.572;13.460;2023-11-19T18:22:06;1.10;;;1.10;;
12869;SDS011;6503;48.572;13.460;2023-11-19T18:24:33;2.35;;;2.03;;
12869;SDS011;6503;48.572;13.460;2023-11-19T18:27:30;3.03;;;2.83;;
12869;SDS011;6503;48.572;13.460;2023-11-19T18:30:12;2.85;;;2.50;;
12869;SDS011;6503;48.572;13.460;2023-11-19T18:32:43;3.20;;;2.95;;
12869;SDS011;6503;48.572;13.460;2023-11-19T18:35:29;4.43;;;4.10;;